• Join FlightAware (Why Join?)
  • Login
  • US Flag 
02:11AM EDT


 

Airport Tracker/Info


-or-


 

Live Flight TrackerFlight Track Log ✈ GGN7283 ✈ 02-Sep-2013 ✈ KALB - CYYZ

Flight Track Log - Related Links

Times and Time Zones

All times are in EDT time to prevent confusion due to time zone crossing. See the GGN7283 flight status page for this flight to view local times or setup timezone preferences in your user account.

Time Position Orientation Groundspeed Altitude Reporting Facility
EDT Latitude Longitude Course Direction KTS MPH feet Rate Location/Type
05:13PM 42.7297 -73.8108 179° South 141 162 1,100  Level Boston Center
05:13PM 42.7069 -73.8103 179° South 156 180 1,900 1,200 Climbing Boston Center
05:15PM 42.6978 -73.8781 260° West 213 245 3,300 1,200 Climbing Boston Center
05:16PM 42.7239 -73.9436 298° West 213 245 4,800 1,320 Climbing Boston Center
05:17PM 42.7314 -74.0144 278° West 203 234 6,000 1,260 Climbing Boston Center
05:18PM 42.7325 -74.0853 271° West 196 226 7,400 1,380 Climbing Boston Center
05:19PM 42.7375 -74.1700 275° West 196 226 8,800 1,200 Climbing Boston Center
05:20PM 42.7447 -74.2353 279° West 196 226 9,900 1,140 Climbing Boston Center
05:21PM 42.7475 -74.3203 273° West 202 232 11,200 1,200 Climbing Boston Center
05:22PM 42.7525 -74.3883 276° West 202 232 12,400 1,320 Climbing Boston Center
05:23PM 42.7575 -74.4733 275° West 207 238 13,900 1,320 Climbing Boston Center
05:24PM 42.7625 -74.5386 276° West 202 232 15,100 1,140 Climbing Boston Center
05:25PM 42.7672 -74.6178 275° West 196 226 16,200 1,020 Climbing Boston Center
05:26PM 42.7722 -74.6858 276° West 201 231 17,200 1,260 Climbing Boston Center
05:27PM 42.7725 -74.7708 270° West 201 231 18,800 1,200 Climbing Boston Center
05:28PM 42.7731 -74.8472 271° West 201 231 19,600 600 Climbing Boston Center
05:29PM 42.7608 -74.9231 258° West 201 231 20,000 180 Climbing Boston Center
05:30PM 42.7425 -75.0072 254° West 206 237 20,000  Level Boston Center
05:31PM 42.7217 -75.0883 251° West 227 261 20,000  Level Boston Center
05:32PM 42.6967 -75.1747 249° West 237 273 20,000  Level Boston Center
05:33PM 42.6739 -75.2558 249° West 237 273 20,000  Level Boston Center
05:34PM 42.6511 -75.3367 249° West 237 273 20,000  Level Boston Center
05:35PM 42.6242 -75.4114 244° Southwest 237 273 20,100  Climbing Boston Center
05:36PM 42.5950 -75.4919 244° Southwest 232 267 20,000 -60 Descending Boston Center
05:37PM 42.5678 -75.5694 245° Southwest 232 267 20,000  Level Boston Center
05:38PM 42.5406 -75.6528 246° West 237 273 20,000  Level Boston Center
05:40PM 42.5336 -75.8214 267° West 224 258 20,000  Level Boston Center
05:41PM 42.5542 -75.8986 290° West 224 258 20,100  Climbing Boston Center
05:42PM 42.5681 -75.9869 282° West 224 258 20,100  Level Boston Center
05:43PM 42.5797 -76.0750 280° West 229 264 20,100 -60 Level Boston Center
05:44PM 42.5939 -76.1606 283° West 234 269 20,000 -60 Descending Boston Center
05:45PM 42.6072 -76.2544 281° West 240 276 20,000  Level Boston Center
05:47PM 42.6167 -76.4167 275° West 240 276 20,100  Climbing Toronto Center
05:48PM 42.6333 -76.4833 289° West 230 265 20,000 -60 Descending Toronto Center
05:49PM 42.6333 -76.5667 270° West 240 276 20,000  Level Toronto Center
05:50PM 42.6500 -76.6667 283° West 240 276 20,000  Level Toronto Center
05:51PM 42.6833 -76.7500 299° West 240 276 20,000  Level Toronto Center
05:52PM 42.7000 -76.8500 283° West 240 276 20,000  Level Toronto Center
05:53PM 42.7167 -76.9167 289° West 240 276 20,000  Level Toronto Center
05:54PM 42.7333 -77.0000 285° West 240 276 20,100  Climbing Toronto Center
05:55PM 42.7500 -77.0833 285° West 240 276 20,000  Descending Toronto Center
05:56PM 42.7667 -77.1833 283° West 240 276 20,100  Climbing Toronto Center
05:57PM 42.7833 -77.2667 285° West 240 276 20,000 -60 Descending Toronto Center
05:58PM 42.8000 -77.3667 283° West 240 276 20,000  Level Toronto Center
05:59PM 42.8333 -77.4333 304° West 240 276 20,000  Level Toronto Center
06:00PM 42.8333 -77.5167 270° West 230 265 20,000  Level Toronto Center
06:01PM 42.8500 -77.6167 283° West 230 265 20,000  Level Toronto Center
06:02PM 42.8667 -77.6833 289° West 230 265 20,100  Climbing Toronto Center
06:03PM 42.8833 -77.7667 285° West 230 265 20,100 -120 Level Toronto Center
06:04PM 42.9000 -77.8500 285° West 230 265 19,900 -1,020 Descending Toronto Center
06:05PM 42.9167 -77.9500 283° West 250 288 18,100 -1,800 Descending Toronto Center
06:06PM 42.9333 -78.0333 285° West 260 299 16,300 -1,800 Descending Toronto Center
06:07PM 42.9500 -78.1500 281° West 260 299 14,600 -1,200 Descending Toronto Center
06:08PM 42.9667 -78.2500 283° West 260 299 14,000 -300 Descending Toronto Center
06:09PM 42.9833 -78.3167 289° West 240 276 14,000  Level Toronto Center
06:10PM 43.0000 -78.4000 285° West 230 265 14,000 -60 Level Toronto Center
06:11PM 43.0333 -78.5000 295° West 230 265 13,900 -60 Descending Toronto Center
06:12PM 43.0667 -78.5667 304° West 230 265 13,900  Level Toronto Center
06:13PM 43.1000 -78.6500 299° West 230 265 13,900  Level Toronto Center
06:14PM 43.1167 -78.7500 283° West 230 265 13,900  Level Toronto Center
06:15PM 43.1333 -78.8167 289° West 230 265 13,900 -300 Level Toronto Center
06:16PM 43.1667 -78.9000 299° West 240 276 13,300 -1,020 Descending Toronto Center
06:17PM 43.2000 -79.0000 295° West 260 299 11,900 -1,500 Descending Toronto Center
06:18PM 43.2167 -79.0833 285° West 270 311 10,400 -1,380 Descending Toronto Center
06:19PM 43.2500 -79.1833 295° West 260 299 9,200 -780 Descending Toronto Center
06:20PM 43.2667 -79.2667 285° West 250 288 8,900 -420 Descending Toronto Center
06:21PM 43.3000 -79.3333 305° West 230 265 8,400 -480 Descending Toronto Center
06:22PM 43.3667 -79.3833 331° Northwest 250 288 8,000 -180 Descending Toronto Center
06:23PM 43.4333 -79.4333 331° Northwest 240 276 8,100  Climbing Toronto Center
06:24PM 43.4833 -79.4667 334° Northwest 250 288 8,100 -240 Level Toronto Center
06:25PM 43.5500 -79.5167 331° Northwest 240 276 7,700 -840 Descending Toronto Center
06:26PM 43.6167 -79.4667 28° Northeast 260 299 6,500 -1,320 Descending Toronto Center
06:27PM 43.6500 -79.4000 55° Northeast 240 276 5,100 -1,380 Descending Toronto Center
06:28PM 43.7000 -79.3333 44° Northeast 230 265 3,800 -1,020 Descending Toronto Center
06:29PM 43.7500 -79.3333 360° North 210 242 3,100 -420 Descending Toronto Center
06:30PM 43.7833 -79.3500 340° North 160 184 3,000  Descending Toronto Center
06:31PM 43.7667 -79.4333 255° West 160 184 3,100 -240 Climbing Toronto Center
06:32PM 43.7333 -79.4667 216° Southwest 160 184 2,600 -660 Descending Toronto Center
06:33PM 43.7000 -79.5167 227° Southwest 160 184 1,800 -840 Descending Toronto Center
06:34PM 43.6833 -79.5667 245° Southwest 150 173 1,000 -600 Descending Toronto Center
06:35PM 43.6500 -79.5833 200° South 110 127 600 -420 Descending Toronto Center